sensor_id;sensor_type;location;lat;lon;timestamp;P1;durP1;ratioP1;P2;durP2;ratioP2
1350;SDS011;669;50.206;9.998;2022-12-20T00:01:21;32.23;;;15.60;;
1350;SDS011;669;50.206;9.998;2022-12-20T00:03:53;44.53;;;19.20;;
1350;SDS011;669;50.206;9.998;2022-12-20T00:06:23;29.37;;;15.90;;
1350;SDS011;669;50.206;9.998;2022-12-20T00:08:52;32.33;;;15.83;;
1350;SDS011;669;50.206;9.998;2022-12-20T00:11:20;23.07;;;13.67;;
1350;SDS011;669;50.206;9.998;2022-12-20T00:13:49;24.30;;;14.50;;
1350;SDS011;669;50.206;9.998;2022-12-20T00:16:18;26.10;;;13.43;;
1350;SDS011;669;50.206;9.998;2022-12-20T00:18:49;29.80;;;14.00;;
1350;SDS011;669;50.206;9.998;2022-12-20T00:21:19;24.53;;;12.90;;
1350;SDS011;669;50.206;9.998;2022-12-20T00:23:48;26.07;;;15.80;;
1350;SDS011;669;50.206;9.998;2022-12-20T00:26:19;27.73;;;13.83;;
1350;SDS011;669;50.206;9.998;2022-12-20T00:28:50;29.30;;;13.30;;
1350;SDS011;669;50.206;9.998;2022-12-20T00:31:19;31.33;;;16.33;;
1350;SDS011;669;50.206;9.998;2022-12-20T00:33:49;32.37;;;17.30;;
1350;SDS011;669;50.206;9.998;2022-12-20T00:36:19;33.37;;;17.07;;
1350;SDS011;669;50.206;9.998;2022-12-20T00:38:49;49.40;;;21.00;;
1350;SDS011;669;50.206;9.998;2022-12-20T00:41:19;36.20;;;19.60;;
1350;SDS011;669;50.206;9.998;2022-12-20T00:43:48;42.03;;;20.97;;
1350;SDS011;669;50.206;9.998;2022-12-20T00:46:16;43.97;;;21.30;;
1350;SDS011;669;50.206;9.998;2022-12-20T00:48:45;48.60;;;23.50;;
1350;SDS011;669;50.206;9.998;2022-12-20T00:51:14;44.03;;;20.77;;
1350;SDS011;669;50.206;9.998;2022-12-20T00:53:45;44.50;;;22.43;;
1350;SDS011;669;50.206;9.998;2022-12-20T00:56:13;33.07;;;17.97;;
1350;SDS011;669;50.206;9.998;2022-12-20T00:58:42;37.73;;;19.80;;
1350;SDS011;669;50.206;9.998;2022-12-20T01:01:14;34.13;;;19.20;;
1350;SDS011;669;50.206;9.998;2022-12-20T01:03:44;54.47;;;26.80;;
1350;SDS011;669;50.206;9.998;2022-12-20T01:06:12;60.07;;;26.57;;
1350;SDS011;669;50.206;9.998;2022-12-20T01:08:40;51.17;;;24.60;;
1350;SDS011;669;50.206;9.998;2022-12-20T01:11:11;42.30;;;21.47;;
1350;SDS011;669;50.206;9.998;2022-12-20T01:13:42;48.57;;;21.70;;
1350;SDS011;669;50.206;9.998;2022-12-20T01:16:12;44.20;;;23.10;;
1350;SDS011;669;50.206;9.998;2022-12-20T01:18:42;53.13;;;25.60;;
1350;SDS011;669;50.206;9.998;2022-12-20T01:21:11;38.50;;;19.27;;
1350;SDS011;669;50.206;9.998;2022-12-20T01:23:39;42.83;;;21.90;;
1350;SDS011;669;50.206;9.998;2022-12-20T01:26:09;43.80;;;21.83;;
1350;SDS011;669;50.206;9.998;2022-12-20T01:28:40;45.13;;;24.63;;
1350;SDS011;669;50.206;9.998;2022-12-20T01:31:10;39.47;;;21.30;;
1350;SDS011;669;50.206;9.998;2022-12-20T01:33:39;37.90;;;20.60;;
1350;SDS011;669;50.206;9.998;2022-12-20T01:36:11;35.60;;;21.47;;
1350;SDS011;669;50.206;9.998;2022-12-20T01:38:40;42.10;;;21.27;;
1350;SDS011;669;50.206;9.998;2022-12-20T01:41:09;34.30;;;19.37;;
1350;SDS011;669;50.206;9.998;2022-12-20T01:43:45;39.03;;;21.37;;
1350;SDS011;669;50.206;9.998;2022-12-20T01:46:15;36.10;;;19.63;;
1350;SDS011;669;50.206;9.998;2022-12-20T01:48:45;37.53;;;18.00;;
1350;SDS011;669;50.206;9.998;2022-12-20T01:51:17;39.00;;;19.70;;
1350;SDS011;669;50.206;9.998;2022-12-20T01:53:46;29.07;;;17.03;;
1350;SDS011;669;50.206;9.998;2022-12-20T01:56:22;34.63;;;18.73;;
1350;SDS011;669;50.206;9.998;2022-12-20T01:58:50;30.20;;;17.57;;
1350;SDS011;669;50.206;9.998;2022-12-20T02:01:21;29.93;;;18.40;;
1350;SDS011;669;50.206;9.998;2022-12-20T02:03:51;37.73;;;20.97;;
1350;SDS011;669;50.206;9.998;2022-12-20T02:06:22;32.17;;;18.80;;
1350;SDS011;669;50.206;9.998;2022-12-20T02:08:52;39.67;;;23.40;;
1350;SDS011;669;50.206;9.998;2022-12-20T02:11:27;41.33;;;23.60;;
1350;SDS011;669;50.206;9.998;2022-12-20T02:14:18;42.37;;;22.60;;
1350;SDS011;669;50.206;9.998;2022-12-20T02:17:03;36.40;;;19.53;;
1350;SDS011;669;50.206;9.998;2022-12-20T02:19:44;33.87;;;19.03;;
1350;SDS011;669;50.206;9.998;2022-12-20T02:22:28;40.67;;;22.33;;
1350;SDS011;669;50.206;9.998;2022-12-20T02:25:18;51.13;;;27.37;;
1350;SDS011;669;50.206;9.998;2022-12-20T02:28:06;43.43;;;23.43;;
1350;SDS011;669;50.206;9.998;2022-12-20T02:30:52;39.53;;;20.97;;
1350;SDS011;669;50.206;9.998;2022-12-20T02:33:22;32.13;;;20.17;;
1350;SDS011;669;50.206;9.998;2022-12-20T02:35:53;34.63;;;19.13;;
1350;SDS011;669;50.206;9.998;2022-12-20T02:38:25;32.90;;;18.77;;
1350;SDS011;669;50.206;9.998;2022-12-20T02:40:56;38.77;;;20.93;;
1350;SDS011;669;50.206;9.998;2022-12-20T02:43:28;30.37;;;17.30;;
1350;SDS011;669;50.206;9.998;2022-12-20T02:46:18;35.33;;;18.83;;
1350;SDS011;669;50.206;9.998;2022-12-20T02:48:47;28.93;;;16.67;;
1350;SDS011;669;50.206;9.998;2022-12-20T02:51:16;32.30;;;18.40;;
1350;SDS011;669;50.206;9.998;2022-12-20T02:53:47;30.50;;;17.10;;
1350;SDS011;669;50.206;9.998;2022-12-20T02:56:19;34.93;;;18.90;;
1350;SDS011;669;50.206;9.998;2022-12-20T02:58:54;33.83;;;18.63;;
1350;SDS011;669;50.206;9.998;2022-12-20T03:01:27;34.77;;;19.27;;
1350;SDS011;669;50.206;9.998;2022-12-20T03:03:57;35.40;;;18.87;;
1350;SDS011;669;50.206;9.998;2022-12-20T03:06:26;35.47;;;18.17;;
1350;SDS011;669;50.206;9.998;2022-12-20T03:08:55;28.60;;;15.77;;
1350;SDS011;669;50.206;9.998;2022-12-20T03:11:23;38.80;;;20.17;;
1350;SDS011;669;50.206;9.998;2022-12-20T03:13:51;34.43;;;20.93;;
1350;SDS011;669;50.206;9.998;2022-12-20T03:16:19;31.77;;;15.60;;
1350;SDS011;669;50.206;9.998;2022-12-20T03:18:49;28.67;;;17.63;;
1350;SDS011;669;50.206;9.998;2022-12-20T03:21:17;31.50;;;18.67;;
1350;SDS011;669;50.206;9.998;2022-12-20T03:23:45;42.53;;;24.33;;
1350;SDS011;669;50.206;9.998;2022-12-20T03:26:12;37.07;;;19.10;;
1350;SDS011;669;50.206;9.998;2022-12-20T03:28:40;33.97;;;17.67;;
1350;SDS011;669;50.206;9.998;2022-12-20T03:31:08;30.17;;;16.57;;
1350;SDS011;669;50.206;9.998;2022-12-20T03:33:36;30.17;;;15.23;;
1350;SDS011;669;50.206;9.998;2022-12-20T03:36:06;44.30;;;23.77;;
1350;SDS011;669;50.206;9.998;2022-12-20T03:38:34;36.63;;;22.50;;
1350;SDS011;669;50.206;9.998;2022-12-20T03:41:02;37.53;;;19.93;;
1350;SDS011;669;50.206;9.998;2022-12-20T03:43:30;33.27;;;18.70;;
1350;SDS011;669;50.206;9.998;2022-12-20T03:45:58;34.17;;;19.80;;
1350;SDS011;669;50.206;9.998;2022-12-20T03:48:26;38.43;;;21.63;;
1350;SDS011;669;50.206;9.998;2022-12-20T03:50:54;35.20;;;20.27;;
1350;SDS011;669;50.206;9.998;2022-12-20T03:53:23;33.50;;;19.00;;
1350;SDS011;669;50.206;9.998;2022-12-20T03:55:51;29.47;;;17.73;;
1350;SDS011;669;50.206;9.998;2022-12-20T03:58:19;30.53;;;17.27;;
1350;SDS011;669;50.206;9.998;2022-12-20T04:00:47;34.00;;;17.67;;
1350;SDS011;669;50.206;9.998;2022-12-20T04:03:15;32.50;;;18.47;;
1350;SDS011;669;50.206;9.998;2022-12-20T04:05:43;38.47;;;20.83;;
1350;SDS011;669;50.206;9.998;2022-12-20T04:08:11;36.30;;;19.40;;
1350;SDS011;669;50.206;9.998;2022-12-20T04:10:40;33.10;;;18.00;;
1350;SDS011;669;50.206;9.998;2022-12-20T04:13:22;35.13;;;19.23;;
1350;SDS011;669;50.206;9.998;2022-12-20T04:15:50;29.27;;;17.93;;
1350;SDS011;669;50.206;9.998;2022-12-20T04:18:25;34.13;;;19.03;;
1350;SDS011;669;50.206;9.998;2022-12-20T04:20:53;35.20;;;19.20;;
1350;SDS011;669;50.206;9.998;2022-12-20T04:23:21;38.57;;;22.50;;
1350;SDS011;669;50.206;9.998;2022-12-20T04:25:50;42.80;;;21.80;;
1350;SDS011;669;50.206;9.998;2022-12-20T04:28:18;44.93;;;23.40;;
1350;SDS011;669;50.206;9.998;2022-12-20T04:30:46;34.97;;;19.87;;
1350;SDS011;669;50.206;9.998;2022-12-20T04:33:14;39.37;;;20.53;;
1350;SDS011;669;50.206;9.998;2022-12-20T04:35:42;32.10;;;18.70;;
1350;SDS011;669;50.206;9.998;2022-12-20T04:38:10;29.43;;;18.30;;
1350;SDS011;669;50.206;9.998;2022-12-20T04:40:38;44.57;;;25.63;;
1350;SDS011;669;50.206;9.998;2022-12-20T04:43:07;47.23;;;26.30;;
1350;SDS011;669;50.206;9.998;2022-12-20T04:45:36;44.97;;;25.37;;
1350;SDS011;669;50.206;9.998;2022-12-20T04:48:04;33.53;;;21.50;;
1350;SDS011;669;50.206;9.998;2022-12-20T04:50:52;30.97;;;18.60;;
1350;SDS011;669;50.206;9.998;2022-12-20T04:53:20;30.93;;;17.00;;
1350;SDS011;669;50.206;9.998;2022-12-20T04:56:07;30.63;;;17.43;;
1350;SDS011;669;50.206;9.998;2022-12-20T04:58:37;40.03;;;21.67;;
1350;SDS011;669;50.206;9.998;2022-12-20T05:01:05;32.13;;;17.37;;
1350;SDS011;669;50.206;9.998;2022-12-20T05:03:32;36.53;;;18.93;;
1350;SDS011;669;50.206;9.998;2022-12-20T05:06:01;33.63;;;19.40;;
1350;SDS011;669;50.206;9.998;2022-12-20T05:08:29;32.60;;;19.43;;
1350;SDS011;669;50.206;9.998;2022-12-20T05:10:56;37.07;;;18.87;;
1350;SDS011;669;50.206;9.998;2022-12-20T05:13:24;31.83;;;19.23;;
1350;SDS011;669;50.206;9.998;2022-12-20T05:15:54;38.33;;;18.70;;
1350;SDS011;669;50.206;9.998;2022-12-20T05:18:23;40.80;;;23.23;;
1350;SDS011;669;50.206;9.998;2022-12-20T05:20:53;34.80;;;20.00;;
1350;SDS011;669;50.206;9.998;2022-12-20T05:23:36;32.33;;;19.00;;
1350;SDS011;669;50.206;9.998;2022-12-20T05:26:22;43.63;;;22.03;;
1350;SDS011;669;50.206;9.998;2022-12-20T05:28:51;37.57;;;20.63;;
1350;SDS011;669;50.206;9.998;2022-12-20T05:31:20;52.93;;;25.03;;
1350;SDS011;669;50.206;9.998;2022-12-20T05:33:48;35.00;;;21.70;;
1350;SDS011;669;50.206;9.998;2022-12-20T05:36:16;46.07;;;26.50;;
1350;SDS011;669;50.206;9.998;2022-12-20T05:38:44;45.43;;;26.13;;
1350;SDS011;669;50.206;9.998;2022-12-20T05:41:12;42.83;;;22.87;;
1350;SDS011;669;50.206;9.998;2022-12-20T05:43:41;42.10;;;22.73;;
1350;SDS011;669;50.206;9.998;2022-12-20T05:46:09;36.60;;;21.30;;
1350;SDS011;669;50.206;9.998;2022-12-20T05:48:38;38.90;;;19.97;;
1350;SDS011;669;50.206;9.998;2022-12-20T05:51:06;35.20;;;17.80;;
1350;SDS011;669;50.206;9.998;2022-12-20T05:53:34;33.40;;;18.50;;
1350;SDS011;669;50.206;9.998;2022-12-20T05:56:02;33.40;;;20.93;;
1350;SDS011;669;50.206;9.998;2022-12-20T05:58:30;37.90;;;19.63;;
1350;SDS011;669;50.206;9.998;2022-12-20T06:00:59;38.00;;;22.60;;
1350;SDS011;669;50.206;9.998;2022-12-20T06:03:27;42.10;;;23.20;;
1350;SDS011;669;50.206;9.998;2022-12-20T06:05:56;39.83;;;23.47;;
1350;SDS011;669;50.206;9.998;2022-12-20T06:08:24;34.90;;;19.77;;
1350;SDS011;669;50.206;9.998;2022-12-20T06:10:52;34.30;;;19.90;;
1350;SDS011;669;50.206;9.998;2022-12-20T06:13:21;30.50;;;17.47;;
1350;SDS011;669;50.206;9.998;2022-12-20T06:15:49;33.33;;;16.43;;
1350;SDS011;669;50.206;9.998;2022-12-20T06:18:17;35.63;;;20.23;;
1350;SDS011;669;50.206;9.998;2022-12-20T06:20:48;31.73;;;17.43;;
1350;SDS011;669;50.206;9.998;2022-12-20T06:23:18;28.07;;;16.67;;
1350;SDS011;669;50.206;9.998;2022-12-20T06:25:46;34.50;;;17.70;;
1350;SDS011;669;50.206;9.998;2022-12-20T06:28:14;27.20;;;17.60;;
1350;SDS011;669;50.206;9.998;2022-12-20T06:30:50;27.97;;;16.93;;
1350;SDS011;669;50.206;9.998;2022-12-20T06:33:19;27.13;;;16.60;;
1350;SDS011;669;50.206;9.998;2022-12-20T06:35:48;26.83;;;16.63;;
1350;SDS011;669;50.206;9.998;2022-12-20T06:38:18;26.80;;;16.97;;
1350;SDS011;669;50.206;9.998;2022-12-20T06:40:46;30.47;;;17.63;;
1350;SDS011;669;50.206;9.998;2022-12-20T06:43:13;26.83;;;16.10;;
1350;SDS011;669;50.206;9.998;2022-12-20T06:45:42;29.73;;;17.57;;
1350;SDS011;669;50.206;9.998;2022-12-20T06:48:10;28.23;;;16.90;;
1350;SDS011;669;50.206;9.998;2022-12-20T06:50:38;30.80;;;17.00;;
1350;SDS011;669;50.206;9.998;2022-12-20T06:53:06;29.33;;;16.40;;
1350;SDS011;669;50.206;9.998;2022-12-20T06:55:35;31.30;;;17.75;;
1350;SDS011;669;50.206;9.998;2022-12-20T06:58:03;28.90;;;16.97;;
1350;SDS011;669;50.206;9.998;2022-12-20T07:00:31;29.03;;;17.90;;
1350;SDS011;669;50.206;9.998;2022-12-20T07:02:59;26.40;;;15.60;;
1350;SDS011;669;50.206;9.998;2022-12-20T07:05:27;32.40;;;17.67;;
1350;SDS011;669;50.206;9.998;2022-12-20T07:07:55;29.30;;;17.60;;
1350;SDS011;669;50.206;9.998;2022-12-20T07:10:22;27.97;;;16.97;;
1350;SDS011;669;50.206;9.998;2022-12-20T07:12:52;27.47;;;16.27;;
1350;SDS011;669;50.206;9.998;2022-12-20T07:15:20;29.13;;;16.17;;
1350;SDS011;669;50.206;9.998;2022-12-20T07:17:48;27.30;;;17.00;;
1350;SDS011;669;50.206;9.998;2022-12-20T07:20:17;31.30;;;19.33;;
1350;SDS011;669;50.206;9.998;2022-12-20T07:22:46;25.73;;;17.23;;
1350;SDS011;669;50.206;9.998;2022-12-20T07:25:14;24.27;;;14.97;;
1350;SDS011;669;50.206;9.998;2022-12-20T07:27:42;27.83;;;16.70;;
1350;SDS011;669;50.206;9.998;2022-12-20T07:30:14;33.20;;;20.63;;
1350;SDS011;669;50.206;9.998;2022-12-20T07:32:42;23.70;;;14.90;;
1350;SDS011;669;50.206;9.998;2022-12-20T07:35:11;32.27;;;15.90;;
1350;SDS011;669;50.206;9.998;2022-12-20T07:37:40;32.93;;;17.87;;
1350;SDS011;669;50.206;9.998;2022-12-20T07:40:09;30.50;;;20.20;;
1350;SDS011;669;50.206;9.998;2022-12-20T07:42:39;44.43;;;25.17;;
1350;SDS011;669;50.206;9.998;2022-12-20T07:45:15;38.20;;;22.37;;
1350;SDS011;669;50.206;9.998;2022-12-20T07:47:43;28.63;;;17.17;;
1350;SDS011;669;50.206;9.998;2022-12-20T07:50:11;35.60;;;18.50;;
1350;SDS011;669;50.206;9.998;2022-12-20T07:52:39;33.37;;;18.97;;
1350;SDS011;669;50.206;9.998;2022-12-20T07:55:09;29.83;;;16.27;;
1350;SDS011;669;50.206;9.998;2022-12-20T07:57:40;32.80;;;17.50;;
1350;SDS011;669;50.206;9.998;2022-12-20T08:00:12;30.37;;;18.83;;
1350;SDS011;669;50.206;9.998;2022-12-20T08:02:44;26.90;;;16.80;;
1350;SDS011;669;50.206;9.998;2022-12-20T08:05:15;35.10;;;20.60;;
1350;SDS011;669;50.206;9.998;2022-12-20T08:07:43;32.10;;;19.50;;
1350;SDS011;669;50.206;9.998;2022-12-20T08:10:18;28.80;;;17.20;;
1350;SDS011;669;50.206;9.998;2022-12-20T08:12:47;31.40;;;18.87;;
1350;SDS011;669;50.206;9.998;2022-12-20T08:15:16;27.80;;;16.00;;
1350;SDS011;669;50.206;9.998;2022-12-20T08:17:45;25.23;;;15.43;;
1350;SDS011;669;50.206;9.998;2022-12-20T08:20:14;20.53;;;14.17;;
1350;SDS011;669;50.206;9.998;2022-12-20T08:22:42;30.13;;;17.87;;
1350;SDS011;669;50.206;9.998;2022-12-20T08:25:11;29.37;;;17.70;;
1350;SDS011;669;50.206;9.998;2022-12-20T08:27:39;32.20;;;18.10;;
1350;SDS011;669;50.206;9.998;2022-12-20T08:30:07;25.90;;;15.80;;
1350;SDS011;669;50.206;9.998;2022-12-20T08:32:36;41.93;;;22.97;;
1350;SDS011;669;50.206;9.998;2022-12-20T08:35:06;34.00;;;18.60;;
1350;SDS011;669;50.206;9.998;2022-12-20T08:37:34;26.83;;;17.33;;
1350;SDS011;669;50.206;9.998;2022-12-20T08:40:02;33.07;;;20.87;;
1350;SDS011;669;50.206;9.998;2022-12-20T08:42:32;27.43;;;16.40;;
1350;SDS011;669;50.206;9.998;2022-12-20T08:45:00;24.43;;;16.00;;
1350;SDS011;669;50.206;9.998;2022-12-20T08:47:28;33.57;;;19.30;;
1350;SDS011;669;50.206;9.998;2022-12-20T08:49:56;33.93;;;16.53;;
1350;SDS011;669;50.206;9.998;2022-12-20T08:52:26;24.87;;;16.20;;
1350;SDS011;669;50.206;9.998;2022-12-20T08:54:54;26.50;;;16.50;;
1350;SDS011;669;50.206;9.998;2022-12-20T08:57:23;24.40;;;14.80;;
1350;SDS011;669;50.206;9.998;2022-12-20T08:59:51;40.07;;;21.07;;
1350;SDS011;669;50.206;9.998;2022-12-20T09:02:19;33.30;;;19.50;;
1350;SDS011;669;50.206;9.998;2022-12-20T09:04:47;24.37;;;16.40;;
1350;SDS011;669;50.206;9.998;2022-12-20T09:07:15;30.10;;;17.13;;
1350;SDS011;669;50.206;9.998;2022-12-20T09:09:44;27.03;;;17.83;;
1350;SDS011;669;50.206;9.998;2022-12-20T09:12:13;29.90;;;17.60;;
1350;SDS011;669;50.206;9.998;2022-12-20T09:14:41;35.60;;;20.70;;
1350;SDS011;669;50.206;9.998;2022-12-20T09:17:09;36.00;;;21.50;;
1350;SDS011;669;50.206;9.998;2022-12-20T09:19:36;43.63;;;21.50;;
1350;SDS011;669;50.206;9.998;2022-12-20T09:22:04;33.20;;;19.00;;
1350;SDS011;669;50.206;9.998;2022-12-20T09:24:33;33.87;;;19.80;;
1350;SDS011;669;50.206;9.998;2022-12-20T09:27:04;27.90;;;16.40;;
1350;SDS011;669;50.206;9.998;2022-12-20T09:29:32;29.37;;;17.47;;
1350;SDS011;669;50.206;9.998;2022-12-20T09:32:01;27.80;;;16.27;;
1350;SDS011;669;50.206;9.998;2022-12-20T09:34:29;29.53;;;17.17;;
1350;SDS011;669;50.206;9.998;2022-12-20T09:36:57;25.80;;;15.60;;
1350;SDS011;669;50.206;9.998;2022-12-20T09:39:24;38.00;;;21.37;;
1350;SDS011;669;50.206;9.998;2022-12-20T09:41:52;21.53;;;15.10;;
1350;SDS011;669;50.206;9.998;2022-12-20T09:44:23;22.40;;;14.57;;
1350;SDS011;669;50.206;9.998;2022-12-20T09:46:53;21.20;;;14.63;;
1350;SDS011;669;50.206;9.998;2022-12-20T09:49:32;23.23;;;14.27;;
1350;SDS011;669;50.206;9.998;2022-12-20T09:52:11;29.67;;;16.27;;
1350;SDS011;669;50.206;9.998;2022-12-20T09:55:01;25.93;;;16.17;;
1350;SDS011;669;50.206;9.998;2022-12-20T09:57:42;22.33;;;14.37;;
1350;SDS011;669;50.206;9.998;2022-12-20T10:00:20;20.83;;;13.30;;
1350;SDS011;669;50.206;9.998;2022-12-20T10:02:48;25.20;;;15.77;;
1350;SDS011;669;50.206;9.998;2022-12-20T10:05:37;26.40;;;15.57;;
1350;SDS011;669;50.206;9.998;2022-12-20T10:08:15;22.70;;;15.53;;
1350;SDS011;669;50.206;9.998;2022-12-20T10:10:50;23.77;;;14.77;;
1350;SDS011;669;50.206;9.998;2022-12-20T10:13:36;31.10;;;18.67;;
1350;SDS011;669;50.206;9.998;2022-12-20T10:16:22;39.13;;;22.93;;
1350;SDS011;669;50.206;9.998;2022-12-20T10:19:05;26.57;;;17.93;;
1350;SDS011;669;50.206;9.998;2022-12-20T10:21:43;31.07;;;17.80;;
1350;SDS011;669;50.206;9.998;2022-12-20T10:24:18;27.93;;;16.70;;
1350;SDS011;669;50.206;9.998;2022-12-20T10:26:48;33.50;;;18.77;;
1350;SDS011;669;50.206;9.998;2022-12-20T10:29:17;31.90;;;19.27;;
1350;SDS011;669;50.206;9.998;2022-12-20T10:31:49;23.37;;;15.40;;
1350;SDS011;669;50.206;9.998;2022-12-20T10:34:21;23.60;;;13.93;;
1350;SDS011;669;50.206;9.998;2022-12-20T10:36:50;25.20;;;15.60;;
1350;SDS011;669;50.206;9.998;2022-12-20T10:39:41;35.40;;;18.60;;
1350;SDS011;669;50.206;9.998;2022-12-20T10:42:24;27.57;;;17.83;;
1350;SDS011;669;50.206;9.998;2022-12-20T10:44:56;29.23;;;17.60;;
1350;SDS011;669;50.206;9.998;2022-12-20T10:47:30;26.73;;;16.80;;
1350;SDS011;669;50.206;9.998;2022-12-20T10:50:07;25.17;;;17.17;;
1350;SDS011;669;50.206;9.998;2022-12-20T10:52:39;27.57;;;16.40;;
1350;SDS011;669;50.206;9.998;2022-12-20T10:55:31;25.50;;;15.00;;
1350;SDS011;669;50.206;9.998;2022-12-20T10:58:02;28.60;;;19.00;;
1350;SDS011;669;50.206;9.998;2022-12-20T11:00:31;30.37;;;18.30;;
1350;SDS011;669;50.206;9.998;2022-12-20T11:03:11;35.30;;;18.83;;
1350;SDS011;669;50.206;9.998;2022-12-20T11:05:51;25.73;;;15.30;;
1350;SDS011;669;50.206;9.998;2022-12-20T11:08:21;26.10;;;14.93;;
1350;SDS011;669;50.206;9.998;2022-12-20T11:11:12;24.57;;;14.53;;
1350;SDS011;669;50.206;9.998;2022-12-20T11:13:43;22.60;;;15.70;;
1350;SDS011;669;50.206;9.998;2022-12-20T11:16:25;26.80;;;15.53;;
1350;SDS011;669;50.206;9.998;2022-12-20T11:19:04;25.47;;;16.57;;
1350;SDS011;669;50.206;9.998;2022-12-20T11:21:58;26.00;;;16.63;;
1350;SDS011;669;50.206;9.998;2022-12-20T11:24:37;25.43;;;15.60;;
1350;SDS011;669;50.206;9.998;2022-12-20T11:27:18;24.60;;;14.57;;
1350;SDS011;669;50.206;9.998;2022-12-20T11:32:53;23.93;;;14.73;;
1350;SDS011;669;50.206;9.998;2022-12-20T11:35:47;23.40;;;15.40;;
1350;SDS011;669;50.206;9.998;2022-12-20T11:38:25;23.80;;;16.03;;
1350;SDS011;669;50.206;9.998;2022-12-20T11:41:07;25.57;;;15.97;;
1350;SDS011;669;50.206;9.998;2022-12-20T11:43:44;26.97;;;15.47;;
1350;SDS011;669;50.206;9.998;2022-12-20T11:46:51;27.93;;;16.97;;
1350;SDS011;669;50.206;9.998;2022-12-20T11:50:00;24.90;;;16.00;;
1350;SDS011;669;50.206;9.998;2022-12-20T11:52:40;23.67;;;14.07;;
1350;SDS011;669;50.206;9.998;2022-12-20T11:55:14;20.20;;;13.63;;
1350;SDS011;669;50.206;9.998;2022-12-20T11:57:48;26.40;;;16.63;;
1350;SDS011;669;50.206;9.998;2022-12-20T12:00:43;24.50;;;15.00;;
1350;SDS011;669;50.206;9.998;2022-12-20T12:03:17;28.63;;;16.60;;
1350;SDS011;669;50.206;9.998;2022-12-20T12:05:50;27.63;;;15.57;;
1350;SDS011;669;50.206;9.998;2022-12-20T12:08:24;29.93;;;17.20;;
1350;SDS011;669;50.206;9.998;2022-12-20T12:10:58;26.40;;;17.10;;
1350;SDS011;669;50.206;9.998;2022-12-20T12:13:54;24.63;;;16.17;;
1350;SDS011;669;50.206;9.998;2022-12-20T12:16:26;27.63;;;17.90;;
1350;SDS011;669;50.206;9.998;2022-12-20T12:18:56;24.27;;;17.20;;
1350;SDS011;669;50.206;9.998;2022-12-20T12:21:26;30.43;;;20.67;;
1350;SDS011;669;50.206;9.998;2022-12-20T12:24:02;27.73;;;18.97;;
1350;SDS011;669;50.206;9.998;2022-12-20T12:26:37;28.67;;;16.87;;
1350;SDS011;669;50.206;9.998;2022-12-20T12:29:09;25.67;;;15.73;;
1350;SDS011;669;50.206;9.998;2022-12-20T12:31:39;24.10;;;16.70;;
1350;SDS011;669;50.206;9.998;2022-12-20T12:34:12;27.80;;;16.23;;
1350;SDS011;669;50.206;9.998;2022-12-20T12:37:15;26.23;;;15.70;;
1350;SDS011;669;50.206;9.998;2022-12-20T12:40:08;25.80;;;15.23;;
1350;SDS011;669;50.206;9.998;2022-12-20T12:42:57;26.67;;;15.63;;
1350;SDS011;669;50.206;9.998;2022-12-20T12:45:40;24.40;;;14.13;;
1350;SDS011;669;50.206;9.998;2022-12-20T12:48:13;27.90;;;15.33;;
1350;SDS011;669;50.206;9.998;2022-12-20T12:50:46;20.57;;;14.30;;
1350;SDS011;669;50.206;9.998;2022-12-20T12:53:16;18.20;;;14.20;;
1350;SDS011;669;50.206;9.998;2022-12-20T12:55:48;25.77;;;15.27;;
1350;SDS011;669;50.206;9.998;2022-12-20T12:58:33;29.07;;;16.50;;
1350;SDS011;669;50.206;9.998;2022-12-20T13:01:07;27.47;;;15.30;;
1350;SDS011;669;50.206;9.998;2022-12-20T13:03:40;21.53;;;14.07;;
1350;SDS011;669;50.206;9.998;2022-12-20T13:09:17;22.30;;;13.60;;
1350;SDS011;669;50.206;9.998;2022-12-20T13:11:48;23.60;;;15.47;;
1350;SDS011;669;50.206;9.998;2022-12-20T13:14:46;28.97;;;15.83;;
1350;SDS011;669;50.206;9.998;2022-12-20T13:20:15;21.37;;;14.67;;
1350;SDS011;669;50.206;9.998;2022-12-20T13:25:40;29.70;;;16.53;;
1350;SDS011;669;50.206;9.998;2022-12-20T13:31:28;31.73;;;15.80;;
1350;SDS011;669;50.206;9.998;2022-12-20T13:33:58;19.00;;;14.00;;
1350;SDS011;669;50.206;9.998;2022-12-20T13:36:29;25.97;;;14.13;;
1350;SDS011;669;50.206;9.998;2022-12-20T13:39:00;26.27;;;15.20;;
1350;SDS011;669;50.206;9.998;2022-12-20T13:41:47;27.87;;;15.50;;
1350;SDS011;669;50.206;9.998;2022-12-20T13:47:16;28.30;;;18.40;;
1350;SDS011;669;50.206;9.998;2022-12-20T13:50:21;22.90;;;15.80;;
1350;SDS011;669;50.206;9.998;2022-12-20T13:52:53;19.70;;;14.87;;
1350;SDS011;669;50.206;9.998;2022-12-20T13:55:25;22.97;;;14.30;;
1350;SDS011;669;50.206;9.998;2022-12-20T13:58:02;29.53;;;15.90;;
1350;SDS011;669;50.206;9.998;2022-12-20T14:00:39;28.60;;;16.03;;
1350;SDS011;669;50.206;9.998;2022-12-20T14:03:12;27.07;;;15.97;;
1350;SDS011;669;50.206;9.998;2022-12-20T14:05:46;20.10;;;13.70;;
1350;SDS011;669;50.206;9.998;2022-12-20T14:08:16;21.30;;;14.30;;
1350;SDS011;669;50.206;9.998;2022-12-20T14:10:47;24.83;;;15.47;;
1350;SDS011;669;50.206;9.998;2022-12-20T14:13:18;23.03;;;15.33;;
1350;SDS011;669;50.206;9.998;2022-12-20T14:15:50;32.27;;;19.40;;
1350;SDS011;669;50.206;9.998;2022-12-20T14:18:19;25.10;;;15.07;;
1350;SDS011;669;50.206;9.998;2022-12-20T14:20:50;24.33;;;15.73;;
1350;SDS011;669;50.206;9.998;2022-12-20T14:23:21;24.40;;;16.00;;
1350;SDS011;669;50.206;9.998;2022-12-20T14:25:52;28.40;;;16.23;;
1350;SDS011;669;50.206;9.998;2022-12-20T14:28:26;22.37;;;14.73;;
1350;SDS011;669;50.206;9.998;2022-12-20T14:30:58;25.50;;;15.63;;
1350;SDS011;669;50.206;9.998;2022-12-20T14:33:28;22.30;;;14.50;;
1350;SDS011;669;50.206;9.998;2022-12-20T14:36:08;24.23;;;16.27;;
1350;SDS011;669;50.206;9.998;2022-12-20T14:38:43;19.03;;;14.43;;
1350;SDS011;669;50.206;9.998;2022-12-20T14:43:57;24.30;;;15.10;;
1350;SDS011;669;50.206;9.998;2022-12-20T14:46:28;24.77;;;16.47;;
1350;SDS011;669;50.206;9.998;2022-12-20T14:49:04;22.63;;;16.67;;
1350;SDS011;669;50.206;9.998;2022-12-20T14:51:44;23.53;;;14.30;;
1350;SDS011;669;50.206;9.998;2022-12-20T14:54:15;23.30;;;15.33;;
1350;SDS011;669;50.206;9.998;2022-12-20T14:57:09;24.27;;;15.50;;
1350;SDS011;669;50.206;9.998;2022-12-20T14:59:55;19.37;;;13.37;;
1350;SDS011;669;50.206;9.998;2022-12-20T15:02:32;22.67;;;14.23;;
1350;SDS011;669;50.206;9.998;2022-12-20T15:05:06;25.70;;;15.90;;
1350;SDS011;669;50.206;9.998;2022-12-20T15:07:38;25.83;;;14.80;;
1350;SDS011;669;50.206;9.998;2022-12-20T15:10:07;21.80;;;14.93;;
1350;SDS011;669;50.206;9.998;2022-12-20T15:12:35;27.70;;;17.23;;
1350;SDS011;669;50.206;9.998;2022-12-20T15:15:10;22.23;;;14.50;;
1350;SDS011;669;50.206;9.998;2022-12-20T15:17:56;25.20;;;14.63;;
1350;SDS011;669;50.206;9.998;2022-12-20T15:20:24;24.87;;;15.67;;
1350;SDS011;669;50.206;9.998;2022-12-20T15:22:52;23.80;;;16.03;;
1350;SDS011;669;50.206;9.998;2022-12-20T15:25:20;28.07;;;15.93;;
1350;SDS011;669;50.206;9.998;2022-12-20T15:27:48;23.40;;;12.77;;
1350;SDS011;669;50.206;9.998;2022-12-20T15:30:16;22.63;;;15.07;;
1350;SDS011;669;50.206;9.998;2022-12-20T15:32:44;22.67;;;15.33;;
1350;SDS011;669;50.206;9.998;2022-12-20T15:35:22;20.83;;;13.30;;
1350;SDS011;669;50.206;9.998;2022-12-20T15:37:51;29.97;;;19.70;;
1350;SDS011;669;50.206;9.998;2022-12-20T15:40:18;25.40;;;17.00;;
1350;SDS011;669;50.206;9.998;2022-12-20T15:42:46;33.50;;;19.60;;
1350;SDS011;669;50.206;9.998;2022-12-20T15:45:14;39.17;;;23.43;;
1350;SDS011;669;50.206;9.998;2022-12-20T15:47:42;39.93;;;24.40;;
1350;SDS011;669;50.206;9.998;2022-12-20T15:50:10;44.70;;;24.03;;
1350;SDS011;669;50.206;9.998;2022-12-20T15:52:40;36.63;;;22.73;;